Viking Sea — LAWP7 — position and weather

sailwx.info

Track history (hours):
 
Tides and Currents Weather Stations Pressure Air Temp Water Temp Dewpoint Dewpoint Depression Visibility Wind Speed Wind Dir Waves Ship Positions

Viking Sea

Last reported at 2020-Jan-14 16:48 UTC. Time now 2020-Jan-19 16:53 UTC.
Position N 16°55' W 062°34'.

Length 228 m; draft 6.8 m.

Type: Ship. MMSI: 258215000.

Date/timePositionNaut miles runAvg speedWind from/ knotsBaromVisibWave heightAir tempDewpointWater temp
2020-Jan-14 16:48N 16°55' W 062°34'23 8.9
2020-Jan-14 14:13N 17°16' W 062°44'2 0.7
2020-Jan-14 11:52N 17°16' W 062°46'1 1.5
2020-Jan-14 11:27N 17°16' W 062°46'1 1.7
2020-Jan-14 10:38N 17°17' W 062°47'5 7.6
2020-Jan-14 10:00N 17°19' W 062°52'19 6.9
2020-Jan-14 07:15N 17°31' W 063°07'9 7.1
2020-Jan-14 06:00N 17°39' W 063°11'4 7.0
2020-Jan-14 05:27N 17°42' W 063°14'30 6.6
2020-Jan-14 00:53N 17°57' W 063°41'71 4.2
2020-Jan-13 08:00N 18°12' W 064°54'14 9.5
2020-Jan-13 06:30N 18°15' W 065°08'1610.6
2020-Jan-13 05:00N 18°26' W 065°21'611.7
2020-Jan-13 04:30N 18°27' W 065°27'611.4
2020-Jan-13 04:00N 18°28' W 065°33'510.7
2020-Jan-13 03:30N 18°29' W 065°39'1710.5
2020-Jan-13 01:55N 18°32' W 065°56'510.9
2020-Jan-13 01:30N 18°31' W 066°01'7 6.5
2020-Jan-13 00:30N 18°27' W 066°07'0 0.0
2020-Jan-12 20:28N 18°28' W 066°07'0 0.0
2020-Jan-12 18:28N 18°28' W 066°07'0 0.0
2020-Jan-12 17:28N 18°28' W 066°07'0 0.0
2020-Jan-12 16:28N 18°28' W 066°07'0 0.0
2020-Jan-12 15:58N 18°28' W 066°07'0 0.0
2020-Jan-12 15:28N 18°28' W 066°07'0 0.0
2020-Jan-12 12:28N 18°28' W 066°07'0 0.0
2020-Jan-12 11:25N 18°28' W 066°07'0 0.0
2020-Jan-12 10:28N 18°28' W 066°07'0 0.0
2020-Jan-12 08:58N 18°28' W 066°07'0 0.0
2020-Jan-12 08:28N 18°28' W 066°07'0 0.0
2020-Jan-12 06:55N 18°28' W 066°07'0 0.0
2020-Jan-12 02:58N 18°28' W 066°07'0 0.0
2020-Jan-12 00:58N 18°28' W 066°07'0 0.0
2020-Jan-11 23:58N 18°28' W 066°07'0 0.0
2020-Jan-11 22:55N 18°28' W 066°07'0 0.0
2020-Jan-11 22:28N 18°28' W 066°07'0 0.0
2020-Jan-11 21:28N 18°28' W 066°07'0 0.0
2020-Jan-11 20:58N 18°28' W 066°07'0 0.0
2020-Jan-11 16:58N 18°28' W 066°07'0 0.0
2020-Jan-11 15:58N 18°28' W 066°07'0 0.0
2020-Jan-11 10:58N 18°28' W 066°07'0 0.1
2020-Jan-11 06:30N 18°28' W 066°07'22 7.3
2020-Jan-11 03:30N 18°39' W 065°47'510.9
2020-Jan-11 03:00N 18°38' W 065°42'611.0
2020-Jan-11 02:30N 18°38' W 065°36'1111.1
2020-Jan-11 01:30N 18°36' W 065°24'15 9.9
2020-Jan-11 00:00N 18°27' W 065°12'612.3
2020-Jan-10 23:30N 18°22' W 065°09'13 2.2
2020-Jan-10 17:29N 18°20' W 064°55'0 0.0
2020-Jan-10 16:59N 18°20' W 064°55'0 0.0
2020-Jan-10 15:29N 18°20' W 064°55'0 0.0
2020-Jan-10 12:29N 18°20' W 064°55'8 3.8
2020-Jan-10 10:30N 18°13' W 064°53'337 8.5
2020-Jan-08 18:41N 14°01' W 060°60'0 0.0
2020-Jan-08 17:56N 14°01' W 060°60'0 0.0
2020-Jan-08 17:29N 14°01' W 060°60'0 0.0
2020-Jan-08 15:29N 14°01' W 060°60'0 0.0
2020-Jan-08 14:59N 14°01' W 060°60'0 0.0
2020-Jan-08 13:59N 14°01' W 060°60'  
Track history (hours):
 
Tides and Currents Weather Stations Pressure Air Temp Water Temp Dewpoint Dewpoint Depression Visibility Wind Speed Wind Dir Waves Ship Positions

Viking Sea

Last reported at 2020-Jan-14 16:48 UTC. Time now 2020-Jan-19 16:53 UTC.
Position N 16°55' W 062°34'.

Length 228 m; draft 6.8 m.

Type: Ship. MMSI: 258215000.

Date/timePositionNaut miles runAvg speedWind from/ knotsBaromVisibWave heightAir tempDewpointWater temp
2020-Jan-14 16:48N 16°55' W 062°34'23 8.9
2020-Jan-14 14:13N 17°16' W 062°44'2 0.7
2020-Jan-14 11:52N 17°16' W 062°46'1 1.5
2020-Jan-14 11:27N 17°16' W 062°46'1 1.7
2020-Jan-14 10:38N 17°17' W 062°47'5 7.6
2020-Jan-14 10:00N 17°19' W 062°52'19 6.9
2020-Jan-14 07:15N 17°31' W 063°07'9 7.1
2020-Jan-14 06:00N 17°39' W 063°11'4 7.0
2020-Jan-14 05:27N 17°42' W 063°14'30 6.6
2020-Jan-14 00:53N 17°57' W 063°41'71 4.2
2020-Jan-13 08:00N 18°12' W 064°54'14 9.5
2020-Jan-13 06:30N 18°15' W 065°08'1610.6
2020-Jan-13 05:00N 18°26' W 065°21'611.7
2020-Jan-13 04:30N 18°27' W 065°27'611.4
2020-Jan-13 04:00N 18°28' W 065°33'510.7
2020-Jan-13 03:30N 18°29' W 065°39'1710.5
2020-Jan-13 01:55N 18°32' W 065°56'510.9
2020-Jan-13 01:30N 18°31' W 066°01'7 6.5
2020-Jan-13 00:30N 18°27' W 066°07'0 0.0
2020-Jan-12 20:28N 18°28' W 066°07'0 0.0
2020-Jan-12 18:28N 18°28' W 066°07'0 0.0
2020-Jan-12 17:28N 18°28' W 066°07'0 0.0
2020-Jan-12 16:28N 18°28' W 066°07'0 0.0
2020-Jan-12 15:58N 18°28' W 066°07'0 0.0
2020-Jan-12 15:28N 18°28' W 066°07'0 0.0
2020-Jan-12 12:28N 18°28' W 066°07'0 0.0
2020-Jan-12 11:25N 18°28' W 066°07'0 0.0
2020-Jan-12 10:28N 18°28' W 066°07'0 0.0
2020-Jan-12 08:58N 18°28' W 066°07'0 0.0
2020-Jan-12 08:28N 18°28' W 066°07'0 0.0
2020-Jan-12 06:55N 18°28' W 066°07'0 0.0
2020-Jan-12 02:58N 18°28' W 066°07'0 0.0
2020-Jan-12 00:58N 18°28' W 066°07'0 0.0
2020-Jan-11 23:58N 18°28' W 066°07'0 0.0
2020-Jan-11 22:55N 18°28' W 066°07'0 0.0
2020-Jan-11 22:28N 18°28' W 066°07'0 0.0
2020-Jan-11 21:28N 18°28' W 066°07'0 0.0
2020-Jan-11 20:58N 18°28' W 066°07'0 0.0
2020-Jan-11 16:58N 18°28' W 066°07'0 0.0
2020-Jan-11 15:58N 18°28' W 066°07'0 0.0
2020-Jan-11 10:58N 18°28' W 066°07'0 0.1
2020-Jan-11 06:30N 18°28' W 066°07'22 7.3
2020-Jan-11 03:30N 18°39' W 065°47'510.9
2020-Jan-11 03:00N 18°38' W 065°42'611.0
2020-Jan-11 02:30N 18°38' W 065°36'1111.1
2020-Jan-11 01:30N 18°36' W 065°24'15 9.9
2020-Jan-11 00:00N 18°27' W 065°12'612.3
2020-Jan-10 23:30N 18°22' W 065°09'13 2.2
2020-Jan-10 17:29N 18°20' W 064°55'0 0.0
2020-Jan-10 16:59N 18°20' W 064°55'0 0.0
2020-Jan-10 15:29N 18°20' W 064°55'0 0.0
2020-Jan-10 12:29N 18°20' W 064°55'8 3.8
2020-Jan-10 10:30N 18°13' W 064°53'337 8.5
2020-Jan-08 18:41N 14°01' W 060°60'0 0.0
2020-Jan-08 17:56N 14°01' W 060°60'0 0.0
2020-Jan-08 17:29N 14°01' W 060°60'0 0.0
2020-Jan-08 15:29N 14°01' W 060°60'0 0.0
2020-Jan-08 14:59N 14°01' W 060°60'0 0.0
2020-Jan-08 13:59N 14°01' W 060°60'  

Dump ship's entire track history